createdAt,value
2023-05-13T00:00:49.946Z,11.86
2023-05-13T00:03:17.544Z,11.66
2023-05-13T00:06:42.109Z,12.16
2023-05-13T00:09:10.470Z,11.77
2023-05-13T00:12:03.140Z,11.76
2023-05-13T00:14:42.729Z,11.99
2023-05-13T00:17:13.518Z,11.98
2023-05-13T00:19:44.695Z,12.11
2023-05-13T00:22:14.137Z,12.03
2023-05-13T00:24:41.420Z,12.39
2023-05-13T00:27:08.990Z,12.65
2023-05-13T00:29:39.053Z,12.44
2023-05-13T00:32:06.815Z,12.24
2023-05-13T00:34:33.883Z,12.41
2023-05-13T00:37:04.170Z,12.05
2023-05-13T00:40:00.567Z,12.13
2023-05-13T00:42:35.625Z,12.14
2023-05-13T00:45:02.882Z,11.98
2023-05-13T00:47:29.954Z,12.23
2023-05-13T00:53:32.931Z,11.97
2023-05-13T00:56:02.985Z,12.18
2023-05-13T01:01:47.629Z,11.97
2023-05-13T01:04:50.064Z,11.94
2023-05-13T01:08:19.271Z,11.95
2023-05-13T01:11:00.060Z,11.83
2023-05-13T01:16:57.390Z,11.65
2023-05-13T01:20:11.697Z,11.72
2023-05-13T01:22:39.101Z,11.64
2023-05-13T01:25:06.568Z,11.63
2023-05-13T01:27:33.641Z,11.85
2023-05-13T01:30:00.858Z,11.75
2023-05-13T01:32:28.272Z,11.92
2023-05-13T01:34:56.619Z,12.03
2023-05-13T01:37:26.564Z,12.14
2023-05-13T01:39:53.821Z,11.95
2023-05-13T01:42:21.076Z,11.76
2023-05-13T01:44:50.839Z,11.90
2023-05-13T02:10:50.211Z,11.80
2023-05-13T02:13:17.516Z,11.68
2023-05-13T02:15:52.320Z,11.70
2023-05-13T02:18:28.425Z,11.63
2023-05-13T02:20:56.683Z,11.54
2023-05-13T02:23:23.760Z,11.59
2023-05-13T02:25:55.252Z,11.81
2023-05-13T02:28:22.392Z,11.52
2023-05-13T02:30:49.497Z,11.50
2023-05-13T02:33:16.703Z,11.25
2023-05-13T02:35:43.834Z,11.82
2023-05-13T02:38:11.340Z,11.43
2023-05-13T02:40:55.411Z,11.55
2023-05-13T02:54:40.791Z,11.59
2023-05-13T02:57:10.173Z,11.56
2023-05-13T02:59:37.224Z,11.55
2023-05-13T03:39:52.379Z,11.29
2023-05-13T03:42:20.833Z,10.97
2023-05-13T03:47:36.536Z,10.98
2023-05-13T03:50:03.521Z,11.14
2023-05-13T03:52:30.577Z,11.11
2023-05-13T03:54:57.811Z,11.04
2023-05-13T03:57:25.154Z,11.21
2023-05-13T03:59:52.189Z,11.26
2023-05-13T04:02:21.803Z,11.54
2023-05-13T04:04:56.835Z,11.65
2023-05-13T04:07:23.824Z,11.73
2023-05-13T04:09:51.087Z,11.72
2023-05-13T04:12:35.947Z,11.38
2023-05-13T04:54:15.764Z,12.19
2023-05-13T04:56:45.831Z,11.94
2023-05-13T04:59:16.173Z,11.80
2023-05-13T05:01:43.312Z,12.42
2023-05-13T05:04:10.542Z,12.50
2023-05-13T05:06:39.280Z,12.12
2023-05-13T05:09:06.398Z,12.11
2023-05-13T05:11:33.565Z,12.57
2023-05-13T05:14:03.124Z,12.62
2023-05-13T05:16:29.984Z,12.32
2023-05-13T05:18:56.854Z,12.34
2023-05-13T05:21:23.775Z,12.37
2023-05-13T05:23:50.487Z,12.59
2023-05-13T05:26:19.658Z,12.35
2023-05-13T05:28:47.133Z,12.63
2023-05-13T05:31:14.208Z,12.91
2023-05-13T05:33:41.706Z,12.49
2023-05-13T05:36:08.939Z,12.86
2023-05-13T05:38:35.688Z,12.86
2023-05-13T05:41:02.394Z,12.70
2023-05-13T05:43:31.523Z,13.23
2023-05-13T05:45:58.228Z,13.08
2023-05-13T05:48:24.906Z,12.91
2023-05-13T05:50:51.699Z,13.64
2023-05-13T05:53:20.704Z,13.04
2023-05-13T05:55:47.506Z,13.80
2023-05-13T05:58:16.434Z,13.59
2023-05-13T06:00:43.336Z,14.07
2023-05-13T06:03:10.428Z,13.88
2023-05-13T06:05:37.273Z,13.91
2023-05-13T06:08:04.058Z,13.18
2023-05-13T06:10:30.832Z,13.43
2023-05-13T06:12:57.493Z,13.72
2023-05-13T06:15:24.254Z,13.13
2023-05-13T06:17:51.105Z,13.47
2023-05-13T06:20:18.362Z,13.53
2023-05-13T06:22:44.995Z,15.22
2023-05-13T06:25:11.819Z,15.96
2023-05-13T06:27:38.506Z,15.73
2023-05-13T06:30:06.408Z,16.24
2023-05-13T06:35:03.416Z,17.04
2023-05-13T06:37:30.168Z,17.29
2023-05-13T06:39:58.365Z,16.96
2023-05-13T06:42:25.138Z,16.96
2023-05-13T06:44:52.632Z,17.62
2023-05-13T06:47:23.956Z,17.26
2023-05-13T06:49:50.864Z,17.52
2023-05-13T06:52:17.807Z,16.69
2023-05-13T06:54:49.386Z,16.33
2023-05-13T06:57:29.669Z,17.98
2023-05-13T07:00:04.728Z,18.50
2023-05-13T07:02:31.537Z,18.27
2023-05-13T07:04:58.368Z,18.60
2023-05-13T07:07:25.236Z,19.03
2023-05-13T07:09:52.014Z,18.85
2023-05-13T07:12:18.868Z,17.74
2023-05-13T07:14:45.820Z,17.80
2023-05-13T07:17:12.660Z,18.43
2023-05-13T07:19:51.011Z,17.48
2023-05-13T07:22:18.484Z,17.61
2023-05-13T07:24:45.243Z,18.22
2023-05-13T07:27:21.130Z,19.03
2023-05-13T07:29:49.053Z,18.66
2023-05-13T07:32:24.490Z,18.44
2023-05-13T07:34:51.620Z,18.26
2023-05-13T07:37:20.509Z,18.77
2023-05-13T07:39:50.073Z,18.85
2023-05-13T07:42:19.592Z,19.04
2023-05-13T07:44:46.539Z,18.86
2023-05-13T07:47:14.172Z,19.02
2023-05-13T07:49:42.581Z,19.11
2023-05-13T07:52:09.805Z,19.76
2023-05-13T07:54:36.706Z,20.15
2023-05-13T07:59:45.320Z,19.80
2023-05-13T08:02:12.807Z,20.07
2023-05-13T08:04:40.090Z,20.23
2023-05-13T08:12:40.448Z,19.72
2023-05-13T08:15:09.170Z,20.44
2023-05-13T08:17:59.130Z,20.24
2023-05-13T08:20:30.296Z,20.18
2023-05-13T08:22:58.448Z,20.12
2023-05-13T08:25:25.507Z,20.07
2023-05-13T08:27:52.477Z,19.97
2023-05-13T08:30:19.356Z,20.14
2023-05-13T08:32:46.340Z,20.55
2023-05-13T08:35:16.522Z,20.41
2023-05-13T08:37:49.020Z,20.35
2023-05-13T08:40:16.065Z,20.93
2023-05-13T08:42:55.921Z,20.98
2023-05-13T08:45:33.575Z,20.36
2023-05-13T08:48:02.346Z,19.90
2023-05-13T08:50:35.884Z,20.79
2023-05-13T08:53:03.134Z,20.97
2023-05-13T08:55:40.664Z,20.05
2023-05-13T08:58:08.195Z,20.08
2023-05-13T09:00:35.578Z,21.06
2023-05-13T09:03:02.648Z,20.65
2023-05-13T09:05:39.094Z,20.55
2023-05-13T09:08:09.827Z,20.32
2023-05-13T09:10:38.294Z,20.79
2023-05-13T09:13:06.310Z,20.26
2023-05-13T09:15:33.906Z,20.12
2023-05-13T09:18:14.703Z,20.18
2023-05-13T09:20:51.901Z,20.99
2023-05-13T09:23:18.853Z,21.12
2023-05-13T09:25:45.870Z,21.33
2023-05-13T09:28:15.451Z,21.44
2023-05-13T09:30:46.180Z,21.38
2023-05-13T09:33:20.216Z,21.97
2023-05-13T09:35:53.080Z,21.75
2023-05-13T09:38:27.771Z,22.08
2023-05-13T09:41:03.624Z,21.50
2023-05-13T09:43:34.472Z,21.12
2023-05-13T09:46:07.507Z,21.98
2023-05-13T09:48:43.709Z,21.90
2023-05-13T09:51:10.507Z,21.66
2023-05-13T09:53:37.331Z,21.38
2023-05-13T09:56:04.143Z,21.62
2023-05-13T09:58:34.773Z,20.13
2023-05-13T10:01:02.333Z,21.07
2023-05-13T10:06:10.516Z,21.64
2023-05-13T10:08:44.913Z,21.08
2023-05-13T10:11:15.481Z,21.87
2023-05-13T10:16:28.135Z,21.66
2023-05-13T10:18:56.468Z,21.35
2023-05-13T10:21:24.307Z,21.71
2023-05-13T10:23:52.327Z,21.14
2023-05-13T10:26:22.955Z,20.44
2023-05-13T10:28:52.561Z,21.40
2023-05-13T10:31:19.411Z,21.61
2023-05-13T10:33:49.280Z,21.71
2023-05-13T10:36:47.589Z,22.03
2023-05-13T10:39:42.235Z,22.45
2023-05-13T10:42:36.514Z,21.55
2023-05-13T10:45:03.546Z,21.88
2023-05-13T10:47:33.967Z,22.00
2023-05-13T10:50:05.971Z,22.08
2023-05-13T10:52:44.225Z,21.52
2023-05-13T10:55:18.458Z,21.48
2023-05-13T10:58:04.142Z,21.73
2023-05-13T11:00:32.830Z,21.17
2023-05-13T11:03:10.151Z,21.39
2023-05-13T11:05:40.440Z,21.95
2023-05-13T11:08:12.614Z,22.07
2023-05-13T11:10:41.195Z,22.07
2023-05-13T11:13:14.010Z,21.70
2023-05-13T11:15:50.668Z,21.69
2023-05-13T11:18:17.632Z,21.74
2023-05-13T11:21:05.608Z,21.35
2023-05-13T11:23:51.588Z,21.55
2023-05-13T11:26:19.282Z,21.39
2023-05-13T11:29:06.339Z,21.89
2023-05-13T11:31:47.175Z,21.47
2023-05-13T11:34:16.694Z,21.76
2023-05-13T11:36:48.634Z,22.15
2023-05-13T11:39:20.771Z,21.75
2023-05-13T11:41:52.343Z,21.73
2023-05-13T11:44:21.617Z,21.45
2023-05-13T11:47:01.431Z,21.56
2023-05-13T11:49:47.846Z,21.49
2023-05-13T11:52:16.833Z,22.10
2023-05-13T11:54:50.800Z,22.08
2023-05-13T11:57:32.811Z,21.60
2023-05-13T12:00:02.423Z,22.39
2023-05-13T12:02:37.966Z,22.52
2023-05-13T12:05:08.084Z,22.53
2023-05-13T12:07:35.804Z,22.24
2023-05-13T12:10:03.753Z,22.19
2023-05-13T12:12:41.369Z,22.06
2023-05-13T12:15:12.294Z,21.76
2023-05-13T12:17:39.457Z,21.94
2023-05-13T12:20:16.291Z,21.89
2023-05-13T12:22:43.096Z,21.73
2023-05-13T12:25:44.038Z,21.55
2023-05-13T12:28:25.309Z,21.88
2023-05-13T12:30:59.694Z,21.54
2023-05-13T12:33:27.631Z,22.11
2023-05-13T12:36:17.192Z,22.21
2023-05-13T12:39:19.471Z,21.92
2023-05-13T12:41:54.712Z,22.61
2023-05-13T12:44:21.759Z,22.28
2023-05-13T12:46:52.116Z,22.48
2023-05-13T12:49:18.964Z,22.34
2023-05-13T12:51:45.670Z,21.82
2023-05-13T12:54:12.479Z,21.94
2023-05-13T12:56:42.342Z,22.44
2023-05-13T12:59:09.327Z,22.22
2023-05-13T13:01:37.207Z,22.40
2023-05-13T13:04:04.159Z,22.14
2023-05-13T13:06:32.556Z,22.21
2023-05-13T13:08:59.416Z,22.60
2023-05-13T13:11:26.229Z,22.35
2023-05-13T13:13:52.922Z,22.36
2023-05-13T13:16:20.091Z,22.87
2023-05-13T13:18:54.253Z,22.99
2023-05-13T13:21:22.705Z,22.94
2023-05-13T13:23:49.376Z,22.73
2023-05-13T13:26:16.073Z,23.02
2023-05-13T13:28:42.906Z,22.73
2023-05-13T13:31:09.569Z,22.74
2023-05-13T13:33:39.020Z,22.75
2023-05-13T13:36:06.180Z,22.84
2023-05-13T13:38:32.902Z,22.90
2023-05-13T13:40:59.592Z,22.58
2023-05-13T13:43:26.390Z,22.35
2023-05-13T13:45:55.870Z,22.75
2023-05-13T13:48:22.732Z,22.79
2023-05-13T13:50:50.714Z,22.17
2023-05-13T13:53:19.491Z,22.47
2023-05-13T13:55:46.301Z,22.54
2023-05-13T13:58:16.328Z,22.61
2023-05-13T14:00:45.731Z,22.48
2023-05-13T14:03:15.131Z,22.67
2023-05-13T14:05:42.585Z,22.76
2023-05-13T14:08:09.421Z,22.50
2023-05-13T14:10:36.897Z,22.45
2023-05-13T14:13:08.114Z,22.50
2023-05-13T14:15:39.222Z,22.52
2023-05-13T14:18:09.275Z,22.69
2023-05-13T14:20:39.577Z,22.55
2023-05-13T14:23:06.336Z,22.64
2023-05-13T14:25:36.841Z,22.72
2023-05-13T14:28:07.617Z,22.45
2023-05-13T14:30:34.499Z,22.63
2023-05-13T14:33:01.321Z,22.80
2023-05-13T14:35:28.110Z,22.74
2023-05-13T14:37:55.707Z,22.49
2023-05-13T14:40:22.861Z,22.69
2023-05-13T14:42:49.887Z,22.66
2023-05-13T14:45:25.791Z,22.79
2023-05-13T14:47:53.987Z,22.69
2023-05-13T14:50:41.777Z,22.36
2023-05-13T14:53:09.152Z,22.10
2023-05-13T14:55:39.248Z,22.21
2023-05-13T14:58:09.179Z,21.93
2023-05-13T15:00:44.685Z,21.99
2023-05-13T15:05:52.653Z,22.14
2023-05-13T15:08:20.296Z,22.29
2023-05-13T15:10:47.592Z,21.70
2023-05-13T15:13:27.137Z,21.46
2023-05-13T15:15:54.665Z,21.52
2023-05-13T15:18:21.493Z,21.50
2023-05-13T15:20:57.008Z,21.51
2023-05-13T15:23:23.825Z,21.68
2023-05-13T15:25:51.345Z,21.76
2023-05-13T15:28:18.116Z,21.65
2023-05-13T15:30:51.023Z,21.42
2023-05-13T15:33:19.078Z,21.41
2023-05-13T15:35:48.856Z,21.32
2023-05-13T15:38:15.591Z,21.13
2023-05-13T15:40:42.456Z,21.00
2023-05-13T15:43:09.141Z,20.62
2023-05-13T15:45:44.747Z,20.94
2023-05-13T15:48:19.839Z,20.69
2023-05-13T15:50:46.911Z,20.76
2023-05-13T15:53:18.559Z,20.76
2023-05-13T15:55:45.498Z,20.36
2023-05-13T15:58:15.108Z,20.28
2023-05-13T16:00:41.899Z,20.33
2023-05-13T16:03:08.806Z,20.36
2023-05-13T16:05:36.429Z,20.46
2023-05-13T16:08:05.641Z,20.20
2023-05-13T16:10:35.250Z,20.14
2023-05-13T16:13:02.684Z,20.09
2023-05-13T16:15:29.421Z,19.98
2023-05-13T16:17:56.285Z,20.04
2023-05-13T16:20:23.756Z,19.98
2023-05-13T16:22:50.988Z,19.89
2023-05-13T16:25:17.924Z,19.76
2023-05-13T16:27:57.673Z,19.81
2023-05-13T16:30:30.959Z,19.72
2023-05-13T16:32:58.235Z,19.50
2023-05-13T16:35:25.712Z,19.44
2023-05-13T16:37:52.758Z,19.42
2023-05-13T16:40:23.506Z,19.55
2023-05-13T16:42:51.070Z,19.55
2023-05-13T16:45:19.151Z,19.57
2023-05-13T16:47:45.900Z,19.46
2023-05-13T16:50:12.808Z,19.48
2023-05-13T16:52:39.614Z,19.24
2023-05-13T16:55:06.926Z,19.37
2023-05-13T16:57:33.688Z,19.33
2023-05-13T17:00:00.663Z,19.17
2023-05-13T17:02:27.453Z,19.20
2023-05-13T17:04:54.525Z,19.10
2023-05-13T17:07:23.203Z,19.10
2023-05-13T17:09:55.099Z,19.15
2023-05-13T17:12:22.157Z,18.94
2023-05-13T17:14:50.106Z,18.85
2023-05-13T17:17:17.087Z,19.02
2023-05-13T17:19:44.065Z,19.11
2023-05-13T17:22:16.772Z,18.95
2023-05-13T17:24:43.539Z,18.89
2023-05-13T17:27:10.817Z,19.01
2023-05-13T17:29:57.296Z,18.87
2023-05-13T17:32:57.368Z,18.92
2023-05-13T17:35:26.443Z,18.87
2023-05-13T17:37:57.712Z,18.74
2023-05-13T17:40:40.872Z,18.57
2023-05-13T17:43:16.724Z,18.68
2023-05-13T17:45:45.533Z,18.74
2023-05-13T17:48:12.608Z,18.74
2023-05-13T17:50:39.722Z,18.79
2023-05-13T17:53:06.787Z,18.61
2023-05-13T17:55:33.635Z,18.81
2023-05-13T17:58:00.545Z,18.73
2023-05-13T18:00:27.955Z,18.66
2023-05-13T18:02:54.851Z,18.59
2023-05-13T18:05:23.296Z,18.71
2023-05-13T18:07:50.078Z,18.55
2023-05-13T18:10:17.059Z,18.68
2023-05-13T18:12:43.839Z,18.54
2023-05-13T18:15:10.709Z,18.55
2023-05-13T18:17:37.936Z,18.52
2023-05-13T18:20:17.445Z,18.63
2023-05-13T18:22:46.278Z,18.27
2023-05-13T18:25:13.332Z,18.47
2023-05-13T18:27:40.369Z,18.53
2023-05-13T18:30:07.821Z,18.55
2023-05-13T18:32:37.929Z,18.39
2023-05-13T18:35:05.340Z,18.36
2023-05-13T18:37:32.193Z,18.35
2023-05-13T18:39:59.629Z,18.38
2023-05-13T18:42:26.781Z,18.51
2023-05-13T18:44:56.589Z,18.28
2023-05-13T18:47:23.546Z,18.23
2023-05-13T18:49:50.682Z,18.27
2023-05-13T18:52:17.835Z,18.29
2023-05-13T18:54:44.606Z,18.38
2023-05-13T18:57:11.648Z,18.33
2023-05-13T18:59:38.874Z,18.28
2023-05-13T19:02:07.134Z,18.03
2023-05-13T19:04:34.127Z,18.13
2023-05-13T19:07:01.626Z,18.12
2023-05-13T19:09:28.722Z,18.36
2023-05-13T19:11:56.893Z,18.25
2023-05-13T19:14:23.945Z,18.41
2023-05-13T19:16:51.029Z,18.48
2023-05-13T19:19:18.206Z,18.17
2023-05-13T19:21:45.125Z,18.27
2023-05-13T19:24:11.942Z,18.17
2023-05-13T19:26:38.877Z,18.27
2023-05-13T19:29:05.944Z,18.15
2023-05-13T19:31:33.290Z,18.02
2023-05-13T19:34:01.546Z,18.03
2023-05-13T19:36:28.483Z,18.15
2023-05-13T19:38:58.334Z,18.06
2023-05-13T19:41:25.156Z,17.95
2023-05-13T19:43:52.067Z,18.03
2023-05-13T19:46:19.175Z,17.95
2023-05-13T19:48:48.409Z,18.13
2023-05-13T19:51:28.930Z,18.18
2023-05-13T19:54:15.233Z,18.19
2023-05-13T19:56:42.235Z,18.06
2023-05-13T19:59:09.418Z,18.09
2023-05-13T20:01:40.974Z,18.15
2023-05-13T20:04:09.475Z,18.07
2023-05-13T20:06:37.039Z,17.94
2023-05-13T20:09:03.941Z,17.95
2023-05-13T20:11:31.593Z,17.96
2023-05-13T20:14:04.653Z,17.97
2023-05-13T20:16:31.407Z,17.87
2023-05-13T20:18:58.265Z,17.93
2023-05-13T20:21:25.154Z,18.07
2023-05-13T20:23:51.919Z,18.13
2023-05-13T20:26:18.709Z,18.11
2023-05-13T20:28:48.015Z,18.01
2023-05-13T20:31:15.142Z,18.01
2023-05-13T20:33:42.433Z,18.07
2023-05-13T20:36:09.362Z,18.04
2023-05-13T20:38:36.198Z,18.10
2023-05-13T20:41:03.048Z,18.04
2023-05-13T20:43:31.664Z,17.98
2023-05-13T20:45:58.443Z,18.08
2023-05-13T20:48:25.425Z,17.75
2023-05-13T20:50:59.375Z,17.77
2023-05-13T20:53:35.805Z,17.95
2023-05-13T20:56:04.142Z,17.92
2023-05-13T20:58:31.092Z,18.19
2023-05-13T21:00:58.261Z,18.19
2023-05-13T21:03:25.939Z,17.84
2023-05-13T21:05:52.874Z,17.92
2023-05-13T21:08:19.850Z,17.75
2023-05-13T21:10:46.763Z,17.81
2023-05-13T21:13:13.654Z,17.82
2023-05-13T21:15:40.789Z,17.87
2023-05-13T21:18:07.898Z,17.86
2023-05-13T21:20:34.939Z,18.01
2023-05-13T21:23:02.104Z,17.70
2023-05-13T21:25:29.384Z,17.69
2023-05-13T21:27:57.447Z,17.51
2023-05-13T21:30:25.014Z,17.46
2023-05-13T21:32:52.139Z,17.37
2023-05-13T21:35:19.536Z,17.48
2023-05-13T21:37:47.586Z,17.59
2023-05-13T21:40:15.128Z,17.59
2023-05-13T21:42:42.042Z,17.30
2023-05-13T21:45:09.330Z,17.47
2023-05-13T21:47:36.595Z,17.47
2023-05-13T21:50:04.013Z,17.40
2023-05-13T21:52:31.043Z,17.33
2023-05-13T21:54:57.978Z,17.07
2023-05-13T21:57:24.909Z,17.21
2023-05-13T21:59:51.919Z,17.18
2023-05-13T22:02:19.093Z,16.98
2023-05-13T22:04:46.567Z,17.08
2023-05-13T22:07:13.452Z,16.97
2023-05-13T22:09:40.445Z,16.96
2023-05-13T22:12:07.788Z,16.97
2023-05-13T22:14:44.037Z,17.05
2023-05-13T22:17:11.390Z,16.70
2023-05-13T22:19:38.322Z,16.91
2023-05-13T22:24:46.902Z,17.04
2023-05-13T22:27:16.863Z,16.92
2023-05-13T22:29:44.725Z,17.10
2023-05-13T22:32:12.012Z,17.05
2023-05-13T22:43:38.870Z,17.05
2023-05-13T22:46:06.007Z,16.77
2023-05-13T22:48:33.268Z,16.68
2023-05-13T22:51:00.535Z,16.76
2023-05-13T22:53:27.806Z,16.85
2023-05-13T22:55:54.884Z,16.88
2023-05-13T23:04:06.886Z,16.84
2023-05-13T23:06:33.850Z,16.75
2023-05-13T23:09:00.945Z,16.56
2023-05-13T23:11:28.015Z,16.67
2023-05-13T23:13:58.265Z,16.79
2023-05-13T23:16:28.143Z,16.51
2023-05-13T23:19:22.873Z,16.71
2023-05-13T23:21:53.349Z,16.71
2023-05-13T23:24:33.002Z,16.75
2023-05-13T23:26:59.801Z,16.84
2023-05-13T23:29:29.732Z,16.68
2023-05-13T23:31:59.248Z,16.97
2023-05-13T23:34:29.340Z,16.86
2023-05-13T23:36:56.472Z,17.01
2023-05-13T23:39:23.264Z,16.95
2023-05-13T23:41:50.019Z,16.70
2023-05-13T23:44:19.435Z,16.71
2023-05-13T23:46:59.268Z,16.72
2023-05-13T23:49:30.637Z,16.59
2023-05-13T23:51:57.802Z,16.59
2023-05-13T23:54:29.873Z,16.45
2023-05-13T23:56:57.354Z,16.35
2023-05-13T23:59:24.882Z,16.30
